Elizabethtown, North Carolina
Current Conditions -  °F | °C
As of 8:55 AM on Thursday 23 Oct 2014 (Local Time) from KEYF Reporting Station
Clear Clear  
Wind Chill: 51°   Ceiling: Unl
Heat Index: 51°   Visibility: 10mi
Dew Point: 42°   Wind: 7mph
Humidity: 70%   Direction: 320°NW
Pressure: 30.04"   Gusts: NA
Location:  34.63°N, 78.61°W
Report Text: KEYF 231255Z AUTO 32006KT 10SM CLR 11/06 A3004 RMK AO2 T01070055
Loading
Personal Weather Stations






























Interactive Weather Map
Tropical Storm Tracking
New forecast layout! Learn more

10-Day Weather Forecast

Advertisements
Track Severe Weather on mobile